createdAt,value
2022-09-17T00:01:05.978Z,22.70
2022-09-17T00:03:34.412Z,22.70
2022-09-17T00:06:02.532Z,22.60
2022-09-17T00:08:29.970Z,22.50
2022-09-17T00:10:56.734Z,22.60
2022-09-17T00:13:23.611Z,22.50
2022-09-17T00:15:52.409Z,22.50
2022-09-17T00:18:19.189Z,22.60
2022-09-17T00:20:46.606Z,22.60
2022-09-17T00:23:13.931Z,22.60
2022-09-17T00:25:41.996Z,22.50
2022-09-17T00:28:08.793Z,22.50
2022-09-17T00:30:35.505Z,22.40
2022-09-17T00:33:02.221Z,22.40
2022-09-17T00:35:30.056Z,22.30
2022-09-17T00:37:56.717Z,22.40
2022-09-17T00:40:23.646Z,22.30
2022-09-17T00:42:53.233Z,22.30
2022-09-17T00:45:20.387Z,22.20
2022-09-17T00:48:00.808Z,22.20
2022-09-17T00:50:27.477Z,22.20
2022-09-17T00:52:56.672Z,22.20
2022-09-17T00:55:26.595Z,22.30
2022-09-17T00:57:55.054Z,22.30
2022-09-17T01:00:22.802Z,22.30
2022-09-17T01:02:49.595Z,22.20
2022-09-17T01:05:16.569Z,22.20
2022-09-17T01:07:46.188Z,22.10
2022-09-17T01:10:31.270Z,22.10
2022-09-17T01:13:05.465Z,22.10
2022-09-17T01:15:32.122Z,22.10
2022-09-17T01:18:10.938Z,22.10
2022-09-17T01:20:49.973Z,22.00
2022-09-17T01:23:19.419Z,21.90
2022-09-17T01:26:01.421Z,21.90
2022-09-17T01:28:46.538Z,21.90
2022-09-17T01:31:18.854Z,21.90
2022-09-17T01:33:57.627Z,21.90
2022-09-17T01:36:30.932Z,21.90
2022-09-17T01:38:57.577Z,21.80
2022-09-17T01:41:27.473Z,21.80
2022-09-17T01:43:57.196Z,21.70
2022-09-17T01:46:29.937Z,21.60
2022-09-17T01:48:58.586Z,21.50
2022-09-17T01:51:27.434Z,21.40
2022-09-17T01:53:57.961Z,21.40
2022-09-17T01:56:35.318Z,21.30
2022-09-17T01:59:06.825Z,21.30
2022-09-17T02:01:34.087Z,21.20
2022-09-17T02:04:27.478Z,21.20
2022-09-17T02:06:58.667Z,21.10
2022-09-17T02:09:31.935Z,21.10
2022-09-17T02:12:03.878Z,21.10
2022-09-17T02:14:34.122Z,21.00
2022-09-17T02:17:03.820Z,20.90
2022-09-17T02:19:32.271Z,20.90
2022-09-17T02:22:22.259Z,20.80
2022-09-17T02:25:04.294Z,20.80
2022-09-17T02:27:36.859Z,20.80
2022-09-17T02:30:04.034Z,20.70
2022-09-17T02:32:33.117Z,20.70
2022-09-17T02:34:59.987Z,20.70
2022-09-17T02:37:27.725Z,20.70
2022-09-17T02:39:54.798Z,20.60
2022-09-17T02:42:31.972Z,20.60
2022-09-17T02:45:15.590Z,20.50
2022-09-17T02:47:51.539Z,20.50
2022-09-17T02:50:30.325Z,20.50
2022-09-17T02:53:15.612Z,20.50
2022-09-17T02:55:46.138Z,20.50
2022-09-17T02:58:28.339Z,20.40
2022-09-17T03:00:57.273Z,20.40
2022-09-17T03:03:29.367Z,20.40
2022-09-17T03:05:58.962Z,20.30
2022-09-17T03:08:37.123Z,20.30
2022-09-17T03:11:05.504Z,20.30
2022-09-17T03:13:32.292Z,20.30
2022-09-17T03:15:58.997Z,20.20
2022-09-17T03:18:25.688Z,20.20
2022-09-17T03:20:55.518Z,20.20
2022-09-17T03:23:22.292Z,20.10
2022-09-17T03:25:52.089Z,20.10
2022-09-17T03:28:19.844Z,20.00
2022-09-17T03:30:47.012Z,20.10
2022-09-17T03:33:13.987Z,20.10
2022-09-17T03:35:44.124Z,20.10
2022-09-17T03:38:12.893Z,20.10
2022-09-17T03:40:40.688Z,20.10
2022-09-17T03:43:11.633Z,20.00
2022-09-17T03:45:38.391Z,20.00
2022-09-17T03:48:05.260Z,19.90
2022-09-17T03:50:32.247Z,19.90
2022-09-17T03:52:59.093Z,19.90
2022-09-17T03:55:25.762Z,19.90
2022-09-17T03:57:52.477Z,19.90
2022-09-17T04:00:19.220Z,19.90
2022-09-17T04:02:45.963Z,19.90
2022-09-17T04:05:13.159Z,19.90
2022-09-17T04:07:40.395Z,19.80
2022-09-17T04:10:07.623Z,19.80
2022-09-17T04:12:34.285Z,19.70
2022-09-17T04:15:00.992Z,19.70
2022-09-17T04:17:28.060Z,19.70
2022-09-17T04:19:55.319Z,19.70
2022-09-17T04:22:22.097Z,19.70
2022-09-17T04:24:49.377Z,19.70
2022-09-17T04:27:16.266Z,19.70
2022-09-17T04:29:43.093Z,19.70
2022-09-17T04:32:09.969Z,19.60
2022-09-17T04:34:37.914Z,19.60
2022-09-17T04:37:04.692Z,19.60
2022-09-17T04:39:31.758Z,19.60
2022-09-17T04:41:58.636Z,19.50
2022-09-17T04:44:26.888Z,19.50
2022-09-17T04:46:53.626Z,19.40
2022-09-17T04:49:23.345Z,19.30
2022-09-17T04:51:50.097Z,19.30
2022-09-17T04:54:22.863Z,19.30
2022-09-17T04:56:49.752Z,19.30
2022-09-17T04:59:16.392Z,19.30
2022-09-17T05:01:43.612Z,19.30
2022-09-17T05:04:10.583Z,19.20
2022-09-17T05:06:37.395Z,19.20
2022-09-17T05:09:04.081Z,19.20
2022-09-17T05:11:30.965Z,19.20
2022-09-17T05:13:59.006Z,19.20
2022-09-17T05:16:25.902Z,19.10
2022-09-17T05:18:52.736Z,19.10
2022-09-17T05:21:23.060Z,19.00
2022-09-17T05:23:53.386Z,18.90
2022-09-17T05:26:20.071Z,18.80
2022-09-17T05:28:47.779Z,18.80
2022-09-17T05:31:14.594Z,18.80
2022-09-17T05:33:41.359Z,18.70
2022-09-17T05:36:08.359Z,18.70
2022-09-17T05:38:35.092Z,18.70
2022-09-17T05:41:06.168Z,18.70
2022-09-17T05:43:33.126Z,18.70
2022-09-17T05:46:03.262Z,18.70
2022-09-17T05:48:33.259Z,18.70
2022-09-17T05:51:00.023Z,18.60
2022-09-17T05:53:26.729Z,18.60
2022-09-17T05:55:57.293Z,18.50
2022-09-17T05:58:24.111Z,18.50
2022-09-17T06:00:51.069Z,18.40
2022-09-17T06:03:18.666Z,18.40
2022-09-17T06:05:53.465Z,18.40
2022-09-17T06:08:22.371Z,18.50
2022-09-17T06:10:49.378Z,18.50
2022-09-17T06:13:18.875Z,18.50
2022-09-17T06:15:53.065Z,18.50
2022-09-17T06:18:20.558Z,18.50
2022-09-17T06:20:57.453Z,18.50
2022-09-17T06:23:26.601Z,18.50
2022-09-17T06:25:57.270Z,18.60
2022-09-17T06:28:24.503Z,18.50
2022-09-17T06:30:54.450Z,18.50
2022-09-17T06:33:21.909Z,18.50
2022-09-17T06:35:49.140Z,18.50
2022-09-17T06:38:16.011Z,18.60
2022-09-17T06:40:42.749Z,18.60
2022-09-17T06:43:09.485Z,18.60
2022-09-17T06:45:36.139Z,18.60
2022-09-17T06:48:06.256Z,18.60
2022-09-17T06:50:33.240Z,18.60
2022-09-17T06:52:59.976Z,18.60
2022-09-17T06:55:29.867Z,18.70
2022-09-17T06:57:58.703Z,18.80
2022-09-17T07:00:28.119Z,18.80
2022-09-17T07:02:55.677Z,18.90
2022-09-17T07:05:29.862Z,19.00
2022-09-17T07:07:56.626Z,19.00
2022-09-17T07:10:23.671Z,19.10
2022-09-17T07:12:50.422Z,19.20
2022-09-17T07:15:17.121Z,19.30
2022-09-17T07:17:44.649Z,19.30
2022-09-17T07:20:12.893Z,19.40
2022-09-17T07:22:40.915Z,19.40
2022-09-17T07:25:11.368Z,19.50
2022-09-17T07:27:38.055Z,19.60
2022-09-17T07:30:06.228Z,19.60
2022-09-17T07:32:33.029Z,19.70
2022-09-17T07:34:59.739Z,19.80
2022-09-17T07:37:26.712Z,19.80
2022-09-17T07:39:54.921Z,19.90
2022-09-17T07:42:21.927Z,20.00
2022-09-17T07:44:48.894Z,20.10
2022-09-17T07:47:17.982Z,20.10
2022-09-17T07:49:46.798Z,20.20
2022-09-17T07:52:13.769Z,20.30
2022-09-17T07:54:42.763Z,20.30
2022-09-17T07:57:09.670Z,20.50
2022-09-17T07:59:37.746Z,20.60
2022-09-17T08:04:45.374Z,20.60
2022-09-17T08:07:14.324Z,20.70
2022-09-17T08:09:45.333Z,20.80
2022-09-17T08:12:12.076Z,20.80
2022-09-17T08:14:40.989Z,20.90
2022-09-17T08:17:08.586Z,21.00
2022-09-17T08:19:38.333Z,21.00
2022-09-17T08:22:05.050Z,21.10
2022-09-17T08:24:33.915Z,21.20
2022-09-17T08:27:00.802Z,21.30
2022-09-17T08:29:30.067Z,21.30
2022-09-17T08:31:59.962Z,21.40
2022-09-17T08:34:26.706Z,21.50
2022-09-17T08:36:53.471Z,21.50
2022-09-17T08:39:20.173Z,21.60
2022-09-17T08:41:52.013Z,21.60
2022-09-17T08:44:21.795Z,21.60
2022-09-17T08:46:51.448Z,21.70
2022-09-17T08:49:33.963Z,21.80
2022-09-17T08:52:06.615Z,21.90
2022-09-17T08:54:49.698Z,22.00
2022-09-17T08:57:17.291Z,22.20
2022-09-17T09:00:06.075Z,22.20
2022-09-17T09:02:53.752Z,22.30
2022-09-17T09:05:28.236Z,22.40
2022-09-17T09:07:57.999Z,22.50
2022-09-17T09:10:33.729Z,22.50
2022-09-17T09:13:00.847Z,22.60
2022-09-17T09:15:30.426Z,22.70
2022-09-17T09:17:59.050Z,22.70
2022-09-17T09:20:32.670Z,22.80
2022-09-17T09:23:06.564Z,22.80
2022-09-17T09:25:37.326Z,22.80
2022-09-17T09:28:23.199Z,23.00
2022-09-17T09:31:10.234Z,23.10
2022-09-17T09:33:40.897Z,23.20
2022-09-17T09:36:15.293Z,23.40
2022-09-17T09:38:45.343Z,23.40
2022-09-17T09:41:15.661Z,23.40
2022-09-17T09:44:03.200Z,23.30
2022-09-17T09:46:34.372Z,23.40
2022-09-17T09:49:12.518Z,23.40
2022-09-17T09:51:41.704Z,23.40
2022-09-17T09:54:12.349Z,23.50
2022-09-17T09:56:42.283Z,23.60
2022-09-17T09:59:10.756Z,23.60
2022-09-17T10:01:40.480Z,23.70
2022-09-17T10:04:26.882Z,23.80
2022-09-17T10:07:06.332Z,24.00
2022-09-17T10:09:35.290Z,23.90
2022-09-17T10:12:06.130Z,24.00
2022-09-17T10:14:34.168Z,24.00
2022-09-17T10:17:21.643Z,24.10
2022-09-17T10:20:12.210Z,24.10
2022-09-17T10:22:44.271Z,24.30
2022-09-17T10:25:23.612Z,24.50
2022-09-17T10:27:51.931Z,24.40
2022-09-17T10:30:19.214Z,24.40
2022-09-17T10:33:06.177Z,24.40
2022-09-17T10:35:36.071Z,24.40
2022-09-17T10:38:02.957Z,24.50
2022-09-17T10:40:31.893Z,24.60
2022-09-17T10:43:17.868Z,24.60
2022-09-17T10:45:46.716Z,24.60
2022-09-17T10:48:22.862Z,24.60
2022-09-17T10:50:53.037Z,24.60
2022-09-17T10:53:21.605Z,24.80
2022-09-17T10:55:52.423Z,24.70
2022-09-17T10:58:19.878Z,24.80
2022-09-17T11:00:59.234Z,24.90
2022-09-17T11:03:44.721Z,24.90
2022-09-17T11:06:23.763Z,24.90
2022-09-17T11:08:50.574Z,24.90
2022-09-17T11:11:17.361Z,25.00
2022-09-17T11:13:44.894Z,25.10
2022-09-17T11:16:18.463Z,25.30
2022-09-17T11:18:46.946Z,25.50
2022-09-17T11:21:33.064Z,25.70
2022-09-17T11:24:03.092Z,25.70
2022-09-17T11:26:47.239Z,25.80
2022-09-17T11:29:18.902Z,25.80
2022-09-17T11:31:55.854Z,25.70
2022-09-17T11:34:23.322Z,25.60
2022-09-17T11:36:53.611Z,25.60
2022-09-17T11:39:28.513Z,25.60
2022-09-17T11:41:55.978Z,25.70
2022-09-17T11:44:27.707Z,25.80
2022-09-17T11:47:00.189Z,25.80
2022-09-17T11:49:30.125Z,25.80
2022-09-17T11:52:03.994Z,25.80
2022-09-17T11:55:02.607Z,25.90
2022-09-17T11:57:38.953Z,26.00
2022-09-17T12:00:16.281Z,26.10
2022-09-17T12:02:49.505Z,26.20
2022-09-17T12:05:27.850Z,26.30
2022-09-17T12:08:03.759Z,26.40
2022-09-17T12:10:52.207Z,26.40
2022-09-17T12:13:38.484Z,26.40
2022-09-17T12:16:14.063Z,26.40
2022-09-17T12:19:00.817Z,26.60
2022-09-17T12:21:35.777Z,26.50
2022-09-17T12:24:17.833Z,26.60
2022-09-17T12:26:55.111Z,26.60
2022-09-17T12:29:36.590Z,26.60
2022-09-17T12:32:22.218Z,26.70
2022-09-17T12:34:57.813Z,26.70
2022-09-17T12:37:36.699Z,26.80
2022-09-17T12:40:22.058Z,26.90
2022-09-17T12:42:51.648Z,27.10
2022-09-17T12:45:30.187Z,27.20
2022-09-17T12:48:23.712Z,27.20
2022-09-17T12:51:11.467Z,27.20
2022-09-17T12:53:52.418Z,27.20
2022-09-17T12:56:38.220Z,27.10
2022-09-17T12:59:13.222Z,27.30
2022-09-17T13:01:42.946Z,27.40
2022-09-17T13:04:26.571Z,27.50
2022-09-17T13:07:19.576Z,27.60
2022-09-17T13:09:49.774Z,27.50
2022-09-17T13:12:19.435Z,27.60
2022-09-17T13:14:58.404Z,27.50
2022-09-17T13:17:34.668Z,27.40
2022-09-17T13:20:13.952Z,27.40
2022-09-17T13:22:59.675Z,27.50
2022-09-17T13:25:27.316Z,27.50
2022-09-17T13:28:06.678Z,27.50
2022-09-17T13:30:52.159Z,27.50
2022-09-17T13:33:48.323Z,27.60
2022-09-17T13:36:34.760Z,27.50
2022-09-17T13:39:02.265Z,27.50
2022-09-17T13:41:33.023Z,27.60
2022-09-17T13:44:00.638Z,27.50
2022-09-17T13:46:28.751Z,27.70
2022-09-17T13:48:57.920Z,27.70
2022-09-17T13:51:30.689Z,27.70
2022-09-17T13:54:10.448Z,27.90
2022-09-17T13:56:46.000Z,27.90
2022-09-17T13:59:15.232Z,27.90
2022-09-17T14:01:51.170Z,28.00
2022-09-17T14:04:50.518Z,28.10
2022-09-17T14:07:29.307Z,27.90
2022-09-17T14:09:57.014Z,27.90
2022-09-17T14:12:59.019Z,27.70
2022-09-17T14:15:41.360Z,27.70
2022-09-17T14:18:26.854Z,27.80
2022-09-17T14:20:55.431Z,27.80
2022-09-17T14:23:22.116Z,27.70
2022-09-17T14:25:51.647Z,27.60
2022-09-17T14:28:30.409Z,27.40
2022-09-17T14:30:59.005Z,27.40
2022-09-17T14:33:30.870Z,27.40
2022-09-17T14:36:08.267Z,27.40
2022-09-17T14:38:44.355Z,27.40
2022-09-17T14:41:12.968Z,27.30
2022-09-17T14:43:49.162Z,27.30
2022-09-17T14:46:20.337Z,27.20
2022-09-17T14:48:47.179Z,27.20
2022-09-17T14:51:19.189Z,27.10
2022-09-17T14:54:07.378Z,27.10
2022-09-17T14:56:35.048Z,27.20
2022-09-17T14:59:02.208Z,27.10
2022-09-17T15:01:30.311Z,27.10
2022-09-17T15:04:12.678Z,27.00
2022-09-17T15:06:43.058Z,27.00
2022-09-17T15:09:17.311Z,27.10
2022-09-17T15:11:45.118Z,27.00
2022-09-17T15:14:16.460Z,27.10
2022-09-17T15:16:51.080Z,26.90
2022-09-17T15:19:28.214Z,26.30
2022-09-17T15:21:58.111Z,26.00
2022-09-17T15:24:40.381Z,25.40
2022-09-17T15:27:13.748Z,25.10
2022-09-17T15:29:42.779Z,25.30
2022-09-17T15:32:11.703Z,25.00
2022-09-17T15:34:40.854Z,24.70
2022-09-17T15:37:25.398Z,24.50
2022-09-17T15:39:55.085Z,24.40
2022-09-17T15:42:29.686Z,24.40
2022-09-17T15:45:22.874Z,24.40
2022-09-17T15:47:53.258Z,25.00
2022-09-17T15:50:34.008Z,25.70
2022-09-17T15:53:09.630Z,25.50
2022-09-17T15:55:46.041Z,25.20
2022-09-17T15:58:42.097Z,25.50
2022-09-17T16:01:18.471Z,25.60
2022-09-17T16:04:19.136Z,25.60
2022-09-17T16:06:57.894Z,24.80
2022-09-17T16:09:50.939Z,24.10
2022-09-17T16:12:28.930Z,24.10
2022-09-17T16:14:58.479Z,24.00
2022-09-17T16:17:35.710Z,24.00
2022-09-17T16:20:17.681Z,23.90
2022-09-17T16:22:45.591Z,24.00
2022-09-17T16:25:20.906Z,23.60
2022-09-17T16:27:55.403Z,23.20
2022-09-17T16:30:23.700Z,23.40
2022-09-17T16:32:50.726Z,23.20
2022-09-17T16:35:22.888Z,23.40
2022-09-17T16:37:54.682Z,23.50
2022-09-17T16:40:27.456Z,23.50
2022-09-17T16:42:54.440Z,23.50
2022-09-17T16:45:23.457Z,23.20
2022-09-17T16:47:53.825Z,22.80
2022-09-17T16:50:20.917Z,22.60
2022-09-17T16:52:47.827Z,22.80
2022-09-17T16:55:16.947Z,22.90
2022-09-17T16:57:46.309Z,23.00
2022-09-17T17:00:17.548Z,23.10
2022-09-17T17:02:47.727Z,23.10
2022-09-17T17:05:14.808Z,23.10
2022-09-17T17:07:41.874Z,22.90
2022-09-17T17:10:09.156Z,22.80
2022-09-17T17:12:38.416Z,22.80
2022-09-17T17:15:06.774Z,22.70
2022-09-17T17:17:35.802Z,22.60
2022-09-17T17:20:08.708Z,22.60
2022-09-17T17:22:39.718Z,22.50
2022-09-17T17:25:07.655Z,22.30
2022-09-17T17:27:35.374Z,22.10
2022-09-17T17:30:05.217Z,21.90
2022-09-17T17:32:34.220Z,21.70
2022-09-17T17:35:01.113Z,21.50
2022-09-17T17:37:28.572Z,21.40
2022-09-17T17:39:55.706Z,21.20
2022-09-17T17:42:22.638Z,21.00
2022-09-17T17:44:49.481Z,20.90
2022-09-17T17:47:16.383Z,20.70
2022-09-17T17:49:45.841Z,20.60
2022-09-17T17:52:12.709Z,20.50
2022-09-17T17:54:39.529Z,20.50
2022-09-17T17:57:06.594Z,20.40
2022-09-17T17:59:33.609Z,20.40
2022-09-17T18:02:00.738Z,20.20
2022-09-17T18:04:27.884Z,20.10
2022-09-17T18:06:54.748Z,19.90
2022-09-17T18:09:21.809Z,19.80
2022-09-17T18:11:48.805Z,19.70
2022-09-17T18:14:15.920Z,19.70
2022-09-17T18:16:42.761Z,19.60
2022-09-17T18:19:11.405Z,19.50
2022-09-17T18:21:38.762Z,19.40
2022-09-17T18:24:05.884Z,19.30
2022-09-17T18:26:32.937Z,19.10
2022-09-17T18:29:04.350Z,18.90
2022-09-17T18:31:35.987Z,18.80
2022-09-17T18:34:10.439Z,18.70
2022-09-17T18:36:38.988Z,18.70
2022-09-17T18:39:33.258Z,18.60
2022-09-17T18:41:54.809Z,18.50
2022-09-17T18:44:22.549Z,18.50
2022-09-17T18:46:51.179Z,18.40
2022-09-17T18:49:18.356Z,18.30
2022-09-17T18:51:45.475Z,18.20
2022-09-17T18:54:13.616Z,18.10
2022-09-17T18:56:41.858Z,17.90
2022-09-17T18:59:11.172Z,17.80
2022-09-17T19:01:38.187Z,17.70
2022-09-17T19:04:07.725Z,17.50
2022-09-17T19:06:35.626Z,17.30
2022-09-17T19:09:04.060Z,17.30
2022-09-17T19:11:30.994Z,17.20
2022-09-17T19:13:58.013Z,17.20
2022-09-17T19:16:25.064Z,17.10
2022-09-17T19:18:52.068Z,17.00
2022-09-17T19:21:22.824Z,16.90
2022-09-17T19:23:51.955Z,16.70
2022-09-17T19:26:27.232Z,16.50
2022-09-17T19:28:55.752Z,16.30
2022-09-17T19:31:22.822Z,16.00
2022-09-17T19:33:51.580Z,15.80
2022-09-17T19:36:19.442Z,15.70
2022-09-17T19:38:46.529Z,15.70
2022-09-17T19:41:15.868Z,15.70
2022-09-17T19:43:43.088Z,15.70
2022-09-17T19:46:18.616Z,15.60
2022-09-17T19:48:50.712Z,15.60
2022-09-17T19:51:18.417Z,15.50
2022-09-17T19:53:45.692Z,15.50
2022-09-17T19:56:17.636Z,15.40
2022-09-17T19:58:45.132Z,15.40
2022-09-17T20:01:12.831Z,15.30
2022-09-17T20:03:41.154Z,15.20
2022-09-17T20:06:11.043Z,15.10
2022-09-17T20:08:46.659Z,15.10
2022-09-17T20:11:16.352Z,15.10
2022-09-17T20:13:43.751Z,15.00
2022-09-17T20:16:13.920Z,14.90
2022-09-17T20:18:41.189Z,14.80
2022-09-17T20:21:20.718Z,14.50
2022-09-17T20:23:48.106Z,14.40
2022-09-17T20:26:16.259Z,14.70
2022-09-17T20:28:43.661Z,15.00
2022-09-17T20:31:22.414Z,15.10
2022-09-17T20:33:53.167Z,15.10
2022-09-17T20:36:22.478Z,15.20
2022-09-17T20:41:40.291Z,15.20
2022-09-17T20:44:07.819Z,14.80
2022-09-17T20:46:34.681Z,14.50
2022-09-17T20:49:01.655Z,14.50
2022-09-17T20:51:30.481Z,14.40
2022-09-17T20:53:57.962Z,14.40
2022-09-17T20:56:27.950Z,14.40
2022-09-17T20:59:03.962Z,14.20
2022-09-17T21:01:32.950Z,13.90
2022-09-17T21:04:01.097Z,13.70
2022-09-17T21:06:33.803Z,13.70
2022-09-17T21:09:01.177Z,13.60
2022-09-17T21:11:29.719Z,13.60
2022-09-17T21:13:56.587Z,13.70
2022-09-17T21:16:23.705Z,13.50
2022-09-17T21:19:01.599Z,13.40
2022-09-17T21:21:29.255Z,13.40
2022-09-17T21:24:03.071Z,13.30
2022-09-17T21:26:29.954Z,13.20
2022-09-17T21:28:57.408Z,13.30
2022-09-17T21:31:31.661Z,13.20
2022-09-17T21:34:01.393Z,13.00
2022-09-17T21:36:30.626Z,13.10
2022-09-17T21:39:00.139Z,13.20
2022-09-17T21:41:27.367Z,13.20
2022-09-17T21:43:54.266Z,13.20
2022-09-17T21:46:29.702Z,13.20
2022-09-17T21:49:00.058Z,13.30
2022-09-17T21:51:32.253Z,13.30
2022-09-17T21:54:01.434Z,13.30
2022-09-17T21:56:29.501Z,13.40
2022-09-17T21:58:59.104Z,13.40
2022-09-17T22:01:31.680Z,13.40
2022-09-17T22:03:59.827Z,13.50
2022-09-17T22:06:29.503Z,13.50
2022-09-17T22:08:57.910Z,13.40
2022-09-17T22:11:30.069Z,13.40
2022-09-17T22:14:04.997Z,13.30
2022-09-17T22:16:33.500Z,13.30
2022-09-17T22:19:02.579Z,13.20
2022-09-17T22:21:31.328Z,13.30
2022-09-17T22:24:00.301Z,13.20
2022-09-17T22:26:30.496Z,13.10
2022-09-17T22:29:05.225Z,13.00
2022-09-17T22:31:33.767Z,13.00
2022-09-17T22:34:01.030Z,12.70
2022-09-17T22:36:28.890Z,12.20
2022-09-17T22:38:58.364Z,12.10
2022-09-17T22:41:28.573Z,12.10
2022-09-17T22:43:57.954Z,11.60
2022-09-17T22:46:27.382Z,11.70
2022-09-17T22:48:55.203Z,11.70
2022-09-17T22:51:22.996Z,11.50
2022-09-17T22:53:49.830Z,11.70
2022-09-17T22:56:19.363Z,11.60
2022-09-17T22:58:46.983Z,11.70
2022-09-17T23:01:19.239Z,11.70
2022-09-17T23:03:48.832Z,11.70
2022-09-17T23:06:19.261Z,11.70
2022-09-17T23:08:46.307Z,11.70
2022-09-17T23:11:33.653Z,11.60
2022-09-17T23:14:03.378Z,11.60
2022-09-17T23:16:38.681Z,11.60
2022-09-17T23:19:05.912Z,11.60
2022-09-17T23:21:32.988Z,11.60
2022-09-17T23:23:59.852Z,11.60
2022-09-17T23:26:28.715Z,11.70
2022-09-17T23:28:56.846Z,11.60
2022-09-17T23:31:27.885Z,11.60
2022-09-17T23:33:56.498Z,11.50
2022-09-17T23:36:27.300Z,11.50
2022-09-17T23:38:55.090Z,11.40
2022-09-17T23:41:25.070Z,11.30
2022-09-17T23:43:54.209Z,11.40
2022-09-17T23:46:23.442Z,11.00
2022-09-17T23:48:53.938Z,10.90
2022-09-17T23:51:21.929Z,10.90
2022-09-17T23:53:49.326Z,10.90
2022-09-17T23:56:21.939Z,11.00
2022-09-17T23:58:49.799Z,11.20
